This is the latest recevied weather packets stored in our database for station/object OE3TEC-15. If no packets are shown the sender has not sent any weather packets the latest 10 day(s).
| Time | Temp. | Humidity | Pressure | Rain* | Wind** | Luminosity | Snow |
|---|---|---|---|---|---|---|---|
| 1777793735 | 17.22° C | 47% | 1019.9 hPa | 0 mm | - | 447 W/m² | - |
| 1777793128 | 17.22° C | 50% | 1019.7 hPa | 0 mm | - | 419 W/m² | - |
| 1777792520 | 16.11° C | 50% | 1019.9 hPa | 0 mm | - | 402 W/m² | - |
| 1777791914 | 16.11° C | 52% | 1019.8 hPa | 0 mm | - | 370 W/m² | - |
| 1777791306 | 15.56° C | 51% | 1019.7 hPa | 0 mm | - | 343 W/m² | - |
| 1777790698 | 15° C | 52% | 1019.8 hPa | 0 mm | - | 319 W/m² | - |
| 1777790093 | 15° C | 53% | 1019.8 hPa | 0 mm | - | 290 W/m² | - |
| 1777789486 | 15° C | 53% | 1019.8 hPa | 0 mm | - | 264 W/m² | - |
| 1777788879 | 14.44° C | 54% | 1019.7 hPa | 0 mm | - | 237 W/m² | - |
| 1777788271 | 14.44° C | 54% | 1019.6 hPa | 0 mm | - | 212 W/m² | - |
| 1777787664 | 14.44° C | 55% | 1019.7 hPa | 0 mm | - | 190 W/m² | - |
| 1777787064 | 13.89° C | 58% | 1019.7 hPa | 0 mm | - | 169 W/m² | - |
| 1777786458 | 12.78° C | 61% | 1019.7 hPa | 0 mm | - | 145 W/m² | - |
| 1777785851 | 11.11° C | 66% | 1019.7 hPa | 0 mm | - | 124 W/m² | - |
| 1777785243 | 10.56° C | 65% | 1019.8 hPa | 0 mm | - | 104 W/m² | - |
| 1777784636 | 10° C | 66% | 1019.8 hPa | 0 mm | - | 85 W/m² | - |
| 1777784028 | 8.89° C | 70% | 1019.7 hPa | 0 mm | - | 69 W/m² | - |
| 1777783421 | 7.78° C | 71% | 1019.8 hPa | 0 mm | - | 54 W/m² | - |
| 1777782815 | 6.67° C | 77% | 1019.6 hPa | 0 mm | - | 41 W/m² | - |
| 1777782207 | 5° C | 81% | 1019.7 hPa | 0 mm | - | 23 W/m² | - |
| 1777781600 | 4.44° C | 83% | 1019.8 hPa | 0 mm | - | 18 W/m² | - |
| 1777780992 | 3.33° C | 84% | 1019.6 hPa | 0 mm | - | 14 W/m² | - |
| 1777780386 | 3.33° C | 83% | 1019.7 hPa | 0 mm | - | 10 W/m² | - |
| 1777779779 | 3.89° C | 82% | 1019.7 hPa | 0 mm | - | 6 W/m² | - |
| 1777779171 | 4.44° C | 83% | 1019.6 hPa | 0 mm | - | 3 W/m² | - |
* Rain latest hour (hover to see other rain measurements)
** Current wind speed in m/s (hover to see current wind gust speed)